createdAt,value
2022-08-03T00:01:23.255Z,3.60
2022-08-03T00:03:49.493Z,3.65
2022-08-03T00:06:15.810Z,4.10
2022-08-03T00:08:42.011Z,3.50
2022-08-03T00:11:08.289Z,3.30
2022-08-03T00:13:34.788Z,3.10
2022-08-03T00:16:01.082Z,3.00
2022-08-03T00:18:27.541Z,2.90
2022-08-03T00:20:53.798Z,2.97
2022-08-03T00:23:20.089Z,2.70
2022-08-03T00:25:46.361Z,2.80
2022-08-03T00:28:12.633Z,2.78
2022-08-03T00:30:40.004Z,2.90
2022-08-03T00:33:10.016Z,2.90
2022-08-03T00:35:50.701Z,3.05
2022-08-03T00:38:18.349Z,3.00
2022-08-03T00:40:44.664Z,3.17
2022-08-03T00:43:10.978Z,3.15
2022-08-03T00:45:39.354Z,3.22
2022-08-03T00:48:06.931Z,3.12
2022-08-03T00:50:56.315Z,3.05
2022-08-03T00:53:22.559Z,3.10
2022-08-03T00:55:48.821Z,3.05
2022-08-03T00:58:15.728Z,3.33
2022-08-03T01:00:42.026Z,3.50
2022-08-03T01:03:09.477Z,3.60
2022-08-03T01:06:33.473Z,3.95
2022-08-03T01:09:23.643Z,4.10
2022-08-03T01:12:01.051Z,4.05
2022-08-03T01:14:44.287Z,4.10
2022-08-03T01:17:19.211Z,4.25
2022-08-03T01:20:02.345Z,4.37
2022-08-03T01:25:55.969Z,4.28
2022-08-03T01:28:48.387Z,3.30
2022-08-03T01:31:17.547Z,3.62
2022-08-03T01:33:46.863Z,3.85
2022-08-03T01:36:14.813Z,4.05
2022-08-03T01:38:49.356Z,4.05
2022-08-03T01:41:18.700Z,4.25
2022-08-03T01:44:27.653Z,4.10
2022-08-03T01:46:59.095Z,4.10
2022-08-03T01:49:25.545Z,3.55
2022-08-03T01:52:03.149Z,3.28
2022-08-03T01:54:40.066Z,3.28
2022-08-03T01:57:06.375Z,3.22
2022-08-03T01:59:34.146Z,3.22
2022-08-03T02:02:19.515Z,3.40
2022-08-03T02:05:00.450Z,2.92
2022-08-03T02:07:26.911Z,2.97
2022-08-03T02:09:53.384Z,3.10
2022-08-03T02:12:19.703Z,3.10
2022-08-03T02:14:47.160Z,3.00
2022-08-03T02:17:13.412Z,2.67
2022-08-03T02:19:40.425Z,2.80
2022-08-03T02:22:09.730Z,2.97
2022-08-03T02:24:35.945Z,2.97
2022-08-03T02:27:02.433Z,3.10
2022-08-03T02:29:39.947Z,3.33
2022-08-03T02:32:11.149Z,3.28
2022-08-03T02:34:37.669Z,3.28
2022-08-03T02:37:03.919Z,3.47
2022-08-03T02:39:30.914Z,3.42
2022-08-03T02:42:01.938Z,3.42
2022-08-03T02:44:32.002Z,3.53
2022-08-03T02:47:03.367Z,3.50
2022-08-03T02:49:42.632Z,3.90
2022-08-03T02:52:17.776Z,3.80
2022-08-03T02:54:44.559Z,3.80
2022-08-03T02:57:10.846Z,4.00
2022-08-03T02:59:37.151Z,3.92
2022-08-03T03:02:03.493Z,3.70
2022-08-03T03:04:33.074Z,3.90
2022-08-03T03:06:59.718Z,4.10
2022-08-03T03:09:29.224Z,4.12
2022-08-03T03:12:08.096Z,4.10
2022-08-03T03:14:35.531Z,4.20
2022-08-03T03:17:01.879Z,4.10
2022-08-03T03:19:28.392Z,4.25
2022-08-03T03:21:54.951Z,4.30
2022-08-03T03:24:21.190Z,4.03
2022-08-03T03:26:48.244Z,4.30
2022-08-03T03:29:15.123Z,4.55
2022-08-03T03:31:41.425Z,4.80
2022-08-03T03:34:07.665Z,4.57
2022-08-03T03:36:34.878Z,4.80
2022-08-03T03:39:15.191Z,4.85
2022-08-03T03:41:43.000Z,4.40
2022-08-03T03:44:09.408Z,4.93
2022-08-03T03:46:36.354Z,5.10
2022-08-03T03:49:02.734Z,5.32
2022-08-03T03:51:29.214Z,5.30
2022-08-03T03:54:02.225Z,4.37
2022-08-03T03:56:28.733Z,3.97
2022-08-03T03:58:55.802Z,3.92
2022-08-03T04:01:22.393Z,3.10
2022-08-03T04:03:48.713Z,2.65
2022-08-03T04:06:33.356Z,3.12
2022-08-03T04:09:18.986Z,3.90
2022-08-03T04:11:53.468Z,3.78
2022-08-03T04:14:33.531Z,5.15
2022-08-03T04:17:04.607Z,4.82
2022-08-03T04:19:36.657Z,5.12
2022-08-03T04:22:06.861Z,5.10
2022-08-03T04:25:34.066Z,5.97
2022-08-03T04:28:30.027Z,6.10
2022-08-03T04:31:00.676Z,6.30
2022-08-03T04:33:29.703Z,6.57
2022-08-03T04:36:02.222Z,6.75
2022-08-03T04:38:32.589Z,6.50
2022-08-03T04:40:59.747Z,6.70
2022-08-03T04:43:26.005Z,6.70
2022-08-03T04:45:52.269Z,7.10
2022-08-03T04:48:19.605Z,7.15
2022-08-03T04:50:46.257Z,7.07
2022-08-03T04:53:12.530Z,6.22
2022-08-03T04:55:39.218Z,5.45
2022-08-03T04:58:06.096Z,5.12
2022-08-03T05:00:32.369Z,4.50
2022-08-03T05:02:58.644Z,3.75
2022-08-03T05:05:25.697Z,3.53
2022-08-03T05:08:15.500Z,3.22
2022-08-03T05:10:42.210Z,3.40
2022-08-03T05:13:12.399Z,3.50
2022-08-03T05:15:43.139Z,3.20
2022-08-03T05:18:14.007Z,3.08
2022-08-03T05:20:40.822Z,3.42
2022-08-03T05:23:07.124Z,3.53
2022-08-03T05:25:35.967Z,3.60
2022-08-03T05:28:03.663Z,4.18
2022-08-03T05:30:33.851Z,4.05
2022-08-03T05:33:02.257Z,3.55
2022-08-03T05:35:55.667Z,4.60
2022-08-03T05:38:34.620Z,3.80
2022-08-03T05:41:23.461Z,4.43
2022-08-03T05:44:04.018Z,5.12
2022-08-03T05:46:30.258Z,6.37
2022-08-03T05:48:56.787Z,7.03
2022-08-03T05:51:23.251Z,5.53
2022-08-03T05:53:49.479Z,4.75
2022-08-03T05:56:16.773Z,5.93
2022-08-03T05:58:44.803Z,11.32
2022-08-03T06:01:11.180Z,11.63
2022-08-03T06:03:37.952Z,11.77
2022-08-03T06:06:04.253Z,12.70
2022-08-03T06:08:30.512Z,8.38
2022-08-03T06:10:57.044Z,4.90
2022-08-03T06:13:23.480Z,6.75
2022-08-03T06:15:49.762Z,6.78
2022-08-03T06:18:16.249Z,5.93
2022-08-03T06:20:42.874Z,7.25
2022-08-03T06:23:16.008Z,8.18
2022-08-03T06:25:43.557Z,8.07
2022-08-03T06:28:19.050Z,6.82
2022-08-03T06:30:55.417Z,8.38
2022-08-03T06:33:21.683Z,7.85
2022-08-03T06:35:47.959Z,4.97
2022-08-03T06:38:14.250Z,4.30
2022-08-03T06:40:40.539Z,4.53
2022-08-03T06:43:10.732Z,4.10
2022-08-03T06:45:39.079Z,4.20
2022-08-03T06:48:07.191Z,5.20
2022-08-03T06:50:34.107Z,4.65
2022-08-03T06:53:00.646Z,10.45
2022-08-03T06:55:26.943Z,31.85
2022-08-03T06:57:53.374Z,31.85
2022-08-03T07:00:19.781Z,16.70
2022-08-03T07:02:46.071Z,15.43
2022-08-03T07:05:13.884Z,12.05
2022-08-03T07:07:40.169Z,22.40
2022-08-03T07:10:07.723Z,25.98
2022-08-03T07:12:34.848Z,31.02
2022-08-03T07:15:03.197Z,24.58
2022-08-03T07:17:31.654Z,15.50
2022-08-03T07:19:58.336Z,20.12
2022-08-03T07:22:24.768Z,15.73
2022-08-03T07:24:51.177Z,24.92
2022-08-03T07:27:17.717Z,30.62
2022-08-03T07:29:44.449Z,18.73
2022-08-03T07:32:10.910Z,8.70
2022-08-03T07:34:37.184Z,5.68
2022-08-03T07:37:03.493Z,5.57
2022-08-03T07:39:29.831Z,7.70
2022-08-03T07:41:56.029Z,8.70
2022-08-03T07:44:22.456Z,8.85
2022-08-03T07:46:50.227Z,7.43
2022-08-03T07:49:18.455Z,7.90
2022-08-03T07:51:45.003Z,8.35
2022-08-03T07:54:11.448Z,7.78
2022-08-03T07:56:39.215Z,7.55
2022-08-03T07:59:05.650Z,8.98
2022-08-03T08:01:35.234Z,12.32
2022-08-03T08:04:01.806Z,13.05
2022-08-03T08:06:28.079Z,13.68
2022-08-03T08:08:58.886Z,12.43
2022-08-03T08:11:25.212Z,13.40
2022-08-03T08:13:52.335Z,8.13
2022-08-03T08:16:19.438Z,13.75
2022-08-03T08:18:45.933Z,11.75
2022-08-03T08:21:12.223Z,13.32
2022-08-03T08:23:43.637Z,17.73
2022-08-03T08:26:10.967Z,39.25
2022-08-03T08:28:37.713Z,31.75
2022-08-03T08:31:03.976Z,31.12
2022-08-03T08:33:47.928Z,27.90
2022-08-03T08:36:27.847Z,29.58
2022-08-03T08:38:54.136Z,21.58
2022-08-03T08:41:20.658Z,28.95
2022-08-03T08:43:46.953Z,22.15
2022-08-03T08:46:23.672Z,29.33
2022-08-03T08:48:50.652Z,25.48
2022-08-03T08:51:19.020Z,31.70
2022-08-03T08:53:47.672Z,32.65
2022-08-03T08:56:15.803Z,27.40
2022-08-03T08:58:46.531Z,26.60
2022-08-03T09:01:12.956Z,27.75
2022-08-03T09:03:39.208Z,29.35
2022-08-03T09:06:06.386Z,32.08
2022-08-03T09:08:32.727Z,25.90
2022-08-03T09:10:59.186Z,26.65
2022-08-03T09:13:25.666Z,31.12
2022-08-03T09:19:24.609Z,29.15
2022-08-03T09:22:13.724Z,34.38
2022-08-03T09:25:21.648Z,31.87
2022-08-03T09:27:49.860Z,32.85
2022-08-03T09:30:19.140Z,29.90
2022-08-03T09:33:05.443Z,30.30
2022-08-03T09:38:29.226Z,23.33
2022-08-03T09:41:00.086Z,19.87
2022-08-03T09:43:30.204Z,19.62
2022-08-03T09:46:07.209Z,18.73
2022-08-03T09:48:36.776Z,18.00
2022-08-03T09:51:12.865Z,17.42
2022-08-03T09:53:58.915Z,16.67
2022-08-03T09:56:44.579Z,14.13
2022-08-03T09:59:11.737Z,16.75
2022-08-03T10:01:41.025Z,16.05
2022-08-03T10:04:12.789Z,14.40
2022-08-03T10:06:40.621Z,25.50
2022-08-03T10:09:15.809Z,21.95
2022-08-03T10:11:43.302Z,22.95
2022-08-03T10:14:10.748Z,20.95
2022-08-03T10:16:38.571Z,24.45
2022-08-03T10:19:06.671Z,24.98
2022-08-03T10:21:34.756Z,25.50
2022-08-03T10:24:02.831Z,25.45
2022-08-03T10:26:30.448Z,27.45
2022-08-03T10:28:56.690Z,28.42
2022-08-03T10:31:23.345Z,47.13
2022-08-03T10:33:53.141Z,52.67
2022-08-03T10:36:23.714Z,57.42
2022-08-03T10:38:56.049Z,66.05
2022-08-03T10:41:25.645Z,68.40
2022-08-03T10:44:28.103Z,84.28
2022-08-03T10:46:54.400Z,72.62
2022-08-03T10:49:33.565Z,69.15
2022-08-03T10:52:01.724Z,66.82
2022-08-03T10:55:03.308Z,69.47
2022-08-03T10:57:49.656Z,62.05
2022-08-03T11:00:18.681Z,65.80
2022-08-03T11:03:05.747Z,57.17
2022-08-03T11:05:34.857Z,68.93
2022-08-03T11:08:25.830Z,79.18
2022-08-03T11:10:54.548Z,70.97
2022-08-03T11:13:23.337Z,57.47
2022-08-03T11:15:51.680Z,54.03
2022-08-03T11:18:18.273Z,42.67
2022-08-03T11:20:56.086Z,41.90
2022-08-03T11:24:04.631Z,49.30
2022-08-03T11:26:32.446Z,37.35
2022-08-03T11:29:27.592Z,40.90
2022-08-03T11:31:54.511Z,35.30
2022-08-03T11:34:20.728Z,23.23
2022-08-03T11:37:23.022Z,28.12
2022-08-03T11:39:51.165Z,32.47
2022-08-03T11:42:50.834Z,34.63
2022-08-03T11:45:19.197Z,23.70
2022-08-03T11:47:51.054Z,35.33
2022-08-03T11:50:19.375Z,23.17
2022-08-03T11:52:45.669Z,23.67
2022-08-03T11:55:13.235Z,21.85
2022-08-03T11:59:01.305Z,30.42
2022-08-03T12:01:46.112Z,21.52
2022-08-03T12:04:12.415Z,22.13
2022-08-03T12:06:55.494Z,31.45
2022-08-03T12:09:22.100Z,23.62
2022-08-03T12:12:00.545Z,28.33
2022-08-03T12:14:51.142Z,41.55
2022-08-03T12:17:18.553Z,44.60
2022-08-03T12:19:45.417Z,49.17
2022-08-03T12:22:13.390Z,57.03
2022-08-03T12:24:41.988Z,68.82
2022-08-03T12:27:08.922Z,66.47
2022-08-03T12:29:35.249Z,67.75
2022-08-03T12:32:02.950Z,60.70
2022-08-03T12:34:48.715Z,51.95
2022-08-03T12:37:22.577Z,49.30
2022-08-03T12:40:02.382Z,54.72
2022-08-03T12:42:37.276Z,81.40
2022-08-03T12:45:28.025Z,93.53
2022-08-03T12:48:01.583Z,90.93
2022-08-03T12:50:32.453Z,94.25
2022-08-03T12:53:00.479Z,93.03
2022-08-03T12:55:32.996Z,80.20
2022-08-03T12:58:35.059Z,56.83
2022-08-03T13:01:09.785Z,60.67
2022-08-03T13:03:54.766Z,45.47
2022-08-03T13:06:25.055Z,43.97
2022-08-03T13:09:07.292Z,47.53
2022-08-03T13:11:57.749Z,53.45
2022-08-03T13:14:29.305Z,42.65
2022-08-03T13:16:55.518Z,51.40
2022-08-03T13:19:21.981Z,64.55
2022-08-03T13:22:02.278Z,77.32
2022-08-03T13:24:31.761Z,42.90
2022-08-03T13:26:59.370Z,47.83
2022-08-03T13:29:25.769Z,40.25
2022-08-03T13:31:52.937Z,50.00
2022-08-03T13:34:23.520Z,60.47
2022-08-03T13:39:59.263Z,79.12
2022-08-03T13:42:29.951Z,46.55
2022-08-03T13:44:56.238Z,69.32
2022-08-03T13:47:22.865Z,52.03
2022-08-03T13:49:54.164Z,48.95
2022-08-03T13:52:27.242Z,45.33
2022-08-03T13:54:53.710Z,52.13
2022-08-03T13:58:06.630Z,49.67
2022-08-03T14:00:33.837Z,38.92
2022-08-03T14:03:09.168Z,37.97
2022-08-03T14:05:45.394Z,39.67
2022-08-03T14:08:11.781Z,42.60
2022-08-03T14:10:40.094Z,55.75
2022-08-03T14:13:07.145Z,40.50
2022-08-03T14:15:37.584Z,75.95
2022-08-03T14:18:07.342Z,62.08
2022-08-03T14:20:48.608Z,44.35
2022-08-03T14:23:17.000Z,50.95
2022-08-03T14:25:50.253Z,41.55
2022-08-03T14:28:20.246Z,42.10
2022-08-03T14:30:47.843Z,33.58
2022-08-03T14:33:14.201Z,37.53
2022-08-03T14:35:40.502Z,34.22
2022-08-03T14:38:06.764Z,34.72
2022-08-03T14:40:33.034Z,33.53
2022-08-03T14:42:59.359Z,35.42
2022-08-03T14:45:25.662Z,48.72
2022-08-03T14:50:27.816Z,43.08
2022-08-03T14:53:04.942Z,39.35
2022-08-03T14:55:38.053Z,39.17
2022-08-03T14:58:19.638Z,39.08
2022-08-03T15:00:47.762Z,35.58
2022-08-03T15:03:16.723Z,37.97
2022-08-03T15:05:43.908Z,43.80
2022-08-03T15:08:10.206Z,36.35
2022-08-03T15:10:44.563Z,38.58
2022-08-03T15:13:14.916Z,39.40
2022-08-03T15:15:41.263Z,40.60
2022-08-03T15:18:07.685Z,38.50
2022-08-03T15:20:43.778Z,38.58
2022-08-03T15:23:11.566Z,43.15
2022-08-03T15:26:29.500Z,47.00
2022-08-03T15:28:59.120Z,44.05
2022-08-03T15:31:25.591Z,40.80
2022-08-03T15:33:52.149Z,43.40
2022-08-03T15:36:18.565Z,37.35
2022-08-03T15:38:45.619Z,35.08
2022-08-03T15:41:13.657Z,22.67
2022-08-03T15:43:40.788Z,21.42
2022-08-03T15:46:28.862Z,20.05
2022-08-03T15:48:55.837Z,18.20
2022-08-03T15:51:22.635Z,20.48
2022-08-03T15:53:49.494Z,18.62
2022-08-03T15:56:18.725Z,16.95
2022-08-03T15:59:03.571Z,15.63
2022-08-03T16:01:39.768Z,11.68
2022-08-03T16:04:06.958Z,11.07
2022-08-03T16:06:35.820Z,11.98
2022-08-03T16:09:23.494Z,17.48
2022-08-03T16:12:15.903Z,19.17
2022-08-03T16:14:53.397Z,27.35
2022-08-03T16:17:21.123Z,29.23
2022-08-03T16:19:47.917Z,30.67
2022-08-03T16:22:17.114Z,33.25
2022-08-03T16:24:46.314Z,31.92
2022-08-03T16:27:36.684Z,31.35
2022-08-03T16:30:22.006Z,26.02
2022-08-03T16:32:48.355Z,24.60
2022-08-03T16:35:19.314Z,24.08
2022-08-03T16:37:51.883Z,18.08
2022-08-03T16:40:24.471Z,19.85
2022-08-03T16:42:50.827Z,22.67
2022-08-03T16:45:17.606Z,26.40
2022-08-03T16:47:43.882Z,27.85
2022-08-03T16:50:15.778Z,33.90
2022-08-03T16:52:47.211Z,34.95
2022-08-03T16:55:15.660Z,59.85
2022-08-03T16:57:59.583Z,33.90
2022-08-03T17:00:34.251Z,28.42
2022-08-03T17:03:18.642Z,19.25
2022-08-03T17:05:47.388Z,12.25
2022-08-03T17:08:15.033Z,10.30
2022-08-03T17:10:45.437Z,8.82
2022-08-03T17:13:13.031Z,8.05
2022-08-03T17:16:01.520Z,6.70
2022-08-03T17:18:34.920Z,6.18
2022-08-03T17:21:05.467Z,6.62
2022-08-03T17:24:51.103Z,7.30
2022-08-03T17:28:50.236Z,9.50
2022-08-03T17:31:31.713Z,9.65
2022-08-03T17:34:00.658Z,8.73
2022-08-03T17:36:37.253Z,7.78
2022-08-03T17:39:15.220Z,8.35
2022-08-03T17:41:50.104Z,6.78
2022-08-03T17:44:29.528Z,7.60
2022-08-03T17:47:01.533Z,7.65
2022-08-03T17:49:28.119Z,8.60
2022-08-03T17:52:05.951Z,7.80
2022-08-03T17:55:50.330Z,5.65
2022-08-03T17:58:37.860Z,4.55
2022-08-03T18:01:59.656Z,4.40
2022-08-03T18:04:34.001Z,5.45
2022-08-03T18:07:11.159Z,5.65
2022-08-03T18:10:04.945Z,5.12
2022-08-03T18:12:47.868Z,5.65
2022-08-03T18:15:26.258Z,6.53
2022-08-03T18:17:58.300Z,6.70
2022-08-03T18:20:32.725Z,7.20
2022-08-03T18:23:01.518Z,5.62
2022-08-03T18:25:42.694Z,4.55
2022-08-03T18:28:13.370Z,6.05
2022-08-03T18:30:53.147Z,7.32
2022-08-03T21:16:11.352Z,6.20
2022-08-03T21:18:50.997Z,4.60
2022-08-03T21:21:21.910Z,3.80
2022-08-03T21:23:50.419Z,6.43
2022-08-03T21:26:18.264Z,6.87
2022-08-03T21:28:55.946Z,7.10
2022-08-03T21:31:25.329Z,8.02
2022-08-03T21:34:02.633Z,7.62
2022-08-03T21:36:31.032Z,6.87
2022-08-03T21:38:57.926Z,6.70
2022-08-03T21:41:29.909Z,6.00
2022-08-03T21:43:56.792Z,4.80
2022-08-03T21:46:23.503Z,4.80
2022-08-03T21:48:55.269Z,6.15
2022-08-03T21:51:24.038Z,6.12
2022-08-03T21:54:00.284Z,6.47
2022-08-03T21:56:52.013Z,6.68
2022-08-03T21:59:19.182Z,6.30
2022-08-03T22:01:49.108Z,4.82
2022-08-03T22:04:50.445Z,4.45
2022-08-03T22:07:23.758Z,4.68
2022-08-03T22:09:51.723Z,4.82
2022-08-03T22:12:26.030Z,5.07
2022-08-03T22:15:00.124Z,5.60
2022-08-03T22:17:55.595Z,5.43
2022-08-03T22:20:26.768Z,7.28
2022-08-03T22:22:55.957Z,9.27
2022-08-03T22:25:26.754Z,11.00
2022-08-03T22:27:53.260Z,12.45
2022-08-03T22:30:20.084Z,11.63
2022-08-03T22:32:47.415Z,9.85
2022-08-03T22:35:14.182Z,9.18
2022-08-03T22:37:40.794Z,7.05
2022-08-03T22:40:12.321Z,4.40
2022-08-03T22:42:40.356Z,4.25
2022-08-03T22:45:07.578Z,4.28
2022-08-03T22:47:38.061Z,4.60
2022-08-03T22:50:32.810Z,4.35
2022-08-03T22:53:00.142Z,3.80
2022-08-03T22:55:26.804Z,4.03
2022-08-03T22:57:55.901Z,3.72
2022-08-03T23:00:23.064Z,3.80
2022-08-03T23:02:49.412Z,3.80
2022-08-03T23:06:01.437Z,3.90
2022-08-03T23:08:31.423Z,3.70
2022-08-03T23:11:05.258Z,3.60
2022-08-03T23:13:32.489Z,3.70
2022-08-03T23:15:59.385Z,3.95
2022-08-03T23:18:28.823Z,3.60
2022-08-03T23:20:57.948Z,3.70
2022-08-03T23:23:24.427Z,4.03
2022-08-03T23:25:51.976Z,4.25
2022-08-03T23:28:18.396Z,4.18
2022-08-03T23:30:45.009Z,4.40
2022-08-03T23:33:12.058Z,4.53
2022-08-03T23:36:22.582Z,4.50
2022-08-03T23:38:57.947Z,4.85
2022-08-03T23:41:24.316Z,5.15
2022-08-03T23:43:53.629Z,4.45
2022-08-03T23:46:23.447Z,4.45
2022-08-03T23:48:50.328Z,4.45
2022-08-03T23:51:47.226Z,4.40
2022-08-03T23:54:51.542Z,4.43
2022-08-03T23:57:44.040Z,4.37
